createdAt,value
2022-12-27T00:00:27.913Z,144.83
2022-12-27T00:03:36.972Z,135.52
2022-12-27T00:06:42.774Z,137.32
2022-12-27T00:09:49.401Z,133.17
2022-12-27T00:12:55.210Z,129.98
2022-12-27T00:16:07.452Z,127.32
2022-12-27T00:19:15.876Z,126.55
2022-12-27T00:22:22.933Z,114.92
2022-12-27T00:25:28.654Z,114.13
2022-12-27T00:28:37.400Z,109.44
2022-12-27T00:31:43.831Z,108.93
2022-12-27T00:34:53.066Z,104.75
2022-12-27T00:38:00.342Z,104.50
2022-12-27T00:41:08.792Z,111.31
2022-12-27T00:44:14.383Z,104.37
2022-12-27T00:47:21.007Z,101.76
2022-12-27T00:50:29.434Z,99.07
2022-12-27T00:53:37.908Z,96.23
2022-12-27T00:56:43.625Z,94.26
2022-12-27T00:59:51.480Z,88.20
2022-12-27T01:02:57.345Z,90.86
2022-12-27T01:06:14.608Z,88.47
2022-12-27T01:09:20.385Z,92.05
2022-12-27T01:12:27.146Z,90.49
2022-12-27T01:15:33.275Z,93.91
2022-12-27T01:18:40.003Z,91.30
2022-12-27T01:21:48.347Z,90.97
2022-12-27T01:24:55.032Z,97.24
2022-12-27T01:28:00.670Z,101.78
2022-12-27T01:31:13.081Z,109.97
2022-12-27T01:34:20.280Z,92.23
2022-12-27T01:37:31.667Z,81.45
2022-12-27T01:40:39.502Z,78.75
2022-12-27T01:43:44.368Z,73.97
2022-12-27T01:46:50.607Z,89.39
2022-12-27T01:50:09.319Z,81.99
2022-12-27T01:53:24.466Z,87.43
2022-12-27T01:56:35.080Z,80.91
2022-12-27T01:59:42.611Z,90.68
2022-12-27T02:02:49.765Z,97.76
2022-12-27T02:05:56.467Z,100.66
2022-12-27T02:09:16.756Z,100.15
2022-12-27T02:12:24.681Z,111.66
2022-12-27T02:15:31.157Z,104.23
2022-12-27T02:18:37.683Z,100.98
2022-12-27T02:22:25.364Z,100.67
2022-12-27T02:26:16.286Z,93.52
2022-12-27T02:29:55.276Z,86.41
2022-12-27T02:33:09.722Z,84.23
2022-12-27T02:36:27.562Z,84.08
2022-12-27T02:39:38.954Z,85.77
2022-12-27T02:42:58.279Z,83.21
2022-12-27T02:46:31.741Z,84.24
2022-12-27T02:49:58.529Z,84.83
2022-12-27T02:53:20.331Z,77.93
2022-12-27T02:57:07.859Z,75.01
2022-12-27T03:00:33.938Z,73.03
2022-12-27T03:04:09.473Z,72.87
2022-12-27T03:07:34.760Z,72.49
2022-12-27T03:11:07.869Z,71.17
2022-12-27T03:14:39.959Z,64.16
2022-12-27T03:18:05.011Z,54.17
2022-12-27T03:21:33.164Z,49.62
2022-12-27T03:24:56.351Z,49.70
2022-12-27T03:28:22.043Z,49.81
2022-12-27T03:32:00.084Z,49.60
2022-12-27T03:35:16.297Z,50.08
2022-12-27T03:38:24.843Z,44.56
2022-12-27T03:41:51.581Z,40.47
2022-12-27T03:44:59.345Z,54.01
2022-12-27T03:48:07.356Z,41.16
2022-12-27T03:51:21.449Z,22.61
2022-12-27T03:54:36.946Z,19.41
2022-12-27T03:57:44.201Z,20.05
2022-12-27T04:00:50.300Z,18.85
2022-12-27T04:03:56.913Z,14.05
2022-12-27T04:07:05.848Z,11.60
2022-12-27T04:10:28.588Z,13.70
2022-12-27T04:13:46.814Z,12.11
2022-12-27T04:17:05.899Z,13.98
2022-12-27T04:20:24.731Z,14.48
2022-12-27T04:23:43.519Z,16.14
2022-12-27T04:27:04.093Z,15.01
2022-12-27T04:30:25.068Z,16.88
2022-12-27T04:33:43.095Z,15.87
2022-12-27T04:36:50.739Z,18.19
2022-12-27T04:40:08.596Z,20.10
2022-12-27T04:43:41.665Z,25.85
2022-12-27T04:46:59.828Z,28.06
2022-12-27T04:50:25.619Z,33.32
2022-12-27T04:53:45.380Z,42.25
2022-12-27T04:56:51.967Z,31.56
2022-12-27T05:00:12.564Z,46.58
2022-12-27T05:03:24.071Z,38.27
2022-12-27T05:06:29.796Z,39.50
2022-12-27T05:09:48.950Z,32.54
2022-12-27T05:13:07.375Z,30.80
2022-12-27T05:16:17.390Z,36.90
2022-12-27T05:19:23.030Z,31.89
2022-12-27T05:22:41.857Z,33.06
2022-12-27T05:25:53.103Z,43.88
2022-12-27T05:29:46.508Z,39.58
2022-12-27T05:33:00.716Z,40.69
2022-12-27T05:36:10.801Z,42.66
2022-12-27T05:39:16.815Z,60.27
2022-12-27T05:42:25.501Z,50.48
2022-12-27T05:45:32.826Z,47.56
2022-12-27T05:48:42.459Z,51.54
2022-12-27T05:51:47.998Z,43.79
2022-12-27T05:54:54.424Z,46.84
2022-12-27T05:58:00.077Z,40.71
2022-12-27T06:01:12.686Z,41.03
2022-12-27T06:04:20.956Z,40.23
2022-12-27T06:07:27.374Z,36.27
2022-12-27T06:10:33.028Z,36.01
2022-12-27T06:13:42.069Z,31.93
2022-12-27T06:16:50.019Z,24.42
2022-12-27T06:19:59.090Z,24.34
2022-12-27T06:23:05.172Z,23.95
2022-12-27T06:26:16.120Z,25.32
2022-12-27T06:29:27.635Z,27.99
2022-12-27T06:32:34.851Z,40.20
2022-12-27T06:35:43.109Z,32.52
2022-12-27T06:38:52.632Z,43.37
2022-12-27T06:41:59.238Z,50.41
2022-12-27T06:45:06.564Z,43.42
2022-12-27T06:48:12.324Z,47.48
2022-12-27T06:51:24.364Z,45.27
2022-12-27T06:54:30.842Z,49.95
2022-12-27T06:57:47.457Z,44.39
2022-12-27T07:00:58.509Z,44.72
2022-12-27T07:04:05.002Z,42.97
2022-12-27T07:07:15.829Z,38.81
2022-12-27T07:10:22.666Z,41.89
2022-12-27T07:13:28.372Z,35.89
2022-12-27T07:16:35.139Z,36.16
2022-12-27T07:19:40.946Z,46.44
2022-12-27T07:22:49.955Z,44.85
2022-12-27T07:25:55.534Z,41.29
2022-12-27T07:29:04.726Z,43.47
2022-12-27T07:32:10.315Z,35.40
2022-12-27T07:35:16.874Z,37.04
2022-12-27T07:38:25.051Z,47.84
2022-12-27T07:41:31.422Z,48.12
2022-12-27T07:44:39.376Z,46.60
2022-12-27T07:47:45.928Z,49.69
2022-12-27T07:50:58.404Z,46.54
2022-12-27T07:54:08.136Z,40.66
2022-12-27T07:57:13.738Z,41.32
2022-12-27T08:00:21.056Z,45.64
2022-12-27T08:03:26.905Z,469.72
2022-12-27T08:06:37.663Z,101.58
2022-12-27T08:09:52.288Z,178.08
2022-12-27T08:12:59.447Z,56.08
2022-12-27T08:16:05.776Z,45.09
2022-12-27T08:19:12.487Z,445.34
2022-12-27T08:22:18.236Z,576.88
2022-12-27T08:25:28.600Z,765.62
2022-12-27T08:28:34.157Z,438.65
2022-12-27T08:31:40.791Z,542.57
2022-12-27T08:34:46.556Z,440.47
2022-12-27T08:37:53.153Z,200.70
2022-12-27T08:41:04.812Z,410.27
2022-12-27T08:44:12.876Z,226.87
2022-12-27T08:47:19.644Z,168.85
2022-12-27T08:50:26.014Z,41.19
2022-12-27T08:53:31.729Z,167.24
2022-12-27T08:56:41.825Z,391.63
2022-12-27T08:59:47.565Z,227.92
2022-12-27T09:02:54.919Z,44.34
2022-12-27T09:06:12.055Z,107.13
2022-12-27T09:09:18.893Z,56.49
2022-12-27T09:12:27.368Z,85.19
2022-12-27T09:15:34.278Z,257.26
2022-12-27T09:18:40.754Z,259.87
2022-12-27T09:21:47.565Z,310.73
2022-12-27T09:24:53.248Z,198.54
2022-12-27T09:28:02.650Z,235.70
2022-12-27T09:31:13.129Z,557.67
2022-12-27T09:34:19.863Z,116.92
2022-12-27T09:37:25.451Z,110.48
2022-12-27T09:40:32.297Z,119.47
2022-12-27T09:43:55.591Z,97.00
2022-12-27T09:47:16.035Z,74.85
2022-12-27T09:50:31.224Z,81.54
2022-12-27T09:53:52.402Z,70.80
2022-12-27T09:57:19.483Z,53.74
2022-12-27T10:00:35.232Z,77.09
2022-12-27T10:03:41.773Z,44.38
2022-12-27T10:07:14.807Z,42.75
2022-12-27T10:10:38.750Z,38.89
2022-12-27T10:13:59.832Z,41.64
2022-12-27T10:17:28.063Z,34.83
2022-12-27T10:20:58.094Z,35.13
2022-12-27T10:24:21.189Z,34.59
2022-12-27T10:27:31.821Z,33.16
2022-12-27T10:30:38.921Z,30.16
2022-12-27T10:33:51.380Z,30.20
2022-12-27T10:36:57.032Z,30.81
2022-12-27T10:40:19.152Z,27.09
2022-12-27T10:43:36.371Z,27.19
2022-12-27T10:46:52.564Z,29.03
2022-12-27T10:50:18.775Z,30.31
2022-12-27T10:53:42.050Z,26.34
2022-12-27T10:56:47.994Z,23.38
2022-12-27T11:00:19.652Z,27.59
2022-12-27T11:03:26.353Z,30.00
2022-12-27T11:06:35.301Z,32.99
2022-12-27T11:09:50.163Z,29.79
2022-12-27T11:13:03.859Z,23.88
2022-12-27T11:16:23.131Z,20.49
2022-12-27T11:19:31.387Z,22.15
2022-12-27T11:22:48.279Z,19.77
2022-12-27T11:25:59.716Z,25.74
2022-12-27T11:29:07.188Z,38.98
2022-12-27T11:32:14.183Z,296.91
2022-12-27T11:35:24.217Z,130.11
2022-12-27T11:38:37.897Z,194.93
2022-12-27T11:41:55.792Z,221.42
2022-12-27T11:45:15.146Z,470.74
2022-12-27T11:48:31.006Z,306.46
2022-12-27T11:52:33.836Z,554.60
2022-12-27T11:56:06.845Z,443.71
2022-12-27T11:59:42.029Z,219.40
2022-12-27T12:03:27.127Z,160.32
2022-12-27T12:06:55.189Z,49.64
2022-12-27T12:10:24.375Z,51.95
2022-12-27T12:14:19.520Z,38.49
2022-12-27T12:18:12.538Z,40.58
2022-12-27T12:21:29.338Z,53.03
2022-12-27T12:25:09.189Z,103.41
2022-12-27T12:29:07.727Z,30.05
2022-12-27T12:32:34.932Z,33.73
2022-12-27T12:36:07.323Z,35.02
2022-12-27T12:39:32.957Z,41.57
2022-12-27T12:42:56.783Z,33.04
2022-12-27T12:46:32.323Z,29.23
2022-12-27T12:50:24.672Z,22.72
2022-12-27T12:54:04.668Z,27.18
2022-12-27T12:57:35.452Z,34.08
2022-12-27T13:01:18.213Z,37.83
2022-12-27T13:05:03.431Z,30.48
2022-12-27T13:08:26.210Z,28.23
2022-12-27T13:11:59.370Z,29.38
2022-12-27T13:15:31.997Z,32.42
2022-12-27T13:19:00.161Z,37.46
2022-12-27T13:22:20.430Z,60.78
2022-12-27T13:25:45.924Z,50.41
2022-12-27T13:29:18.857Z,42.51
2022-12-27T13:32:46.413Z,72.30
2022-12-27T13:36:19.561Z,72.59
2022-12-27T13:40:00.560Z,61.78
2022-12-27T13:43:51.178Z,67.52
2022-12-27T13:47:41.635Z,50.89
2022-12-27T13:51:14.472Z,498.43
2022-12-27T13:55:14.671Z,150.34
2022-12-27T13:59:03.148Z,633.94
2022-12-27T14:03:00.584Z,192.75
2022-12-27T14:06:37.422Z,186.35
2022-12-27T14:10:15.256Z,83.75
2022-12-27T14:13:30.701Z,171.62
2022-12-27T14:17:12.503Z,127.16
2022-12-27T14:20:47.681Z,128.09
2022-12-27T14:24:23.397Z,152.88
2022-12-27T14:28:39.987Z,131.98
2022-12-27T14:32:34.658Z,257.97
2022-12-27T14:36:37.563Z,224.51
2022-12-27T14:40:37.836Z,211.21
2022-12-27T14:44:38.230Z,185.16
2022-12-27T14:48:28.865Z,326.05
2022-12-27T14:52:24.336Z,140.74
2022-12-27T14:55:59.000Z,90.17
2022-12-27T14:59:40.062Z,113.14
2022-12-27T15:03:18.991Z,80.66
2022-12-27T15:07:02.164Z,151.59
2022-12-27T15:10:28.433Z,118.66
2022-12-27T15:14:06.498Z,187.38
2022-12-27T15:17:37.361Z,135.94
2022-12-27T15:21:13.939Z,164.27
2022-12-27T15:24:43.234Z,164.13
2022-12-27T15:28:09.486Z,166.17
2022-12-27T15:31:37.722Z,151.67
2022-12-27T15:35:06.389Z,139.46
2022-12-27T15:38:21.406Z,157.84
2022-12-27T15:41:57.857Z,146.19
2022-12-27T15:45:27.051Z,112.10
2022-12-27T15:49:19.306Z,260.10
2022-12-27T15:52:56.236Z,712.04
2022-12-27T15:56:44.726Z,209.98
2022-12-27T15:59:56.867Z,329.71
2022-12-27T16:03:06.023Z,164.08
2022-12-27T16:06:52.950Z,299.81
2022-12-27T16:09:59.551Z,219.25
2022-12-27T16:13:39.366Z,166.36
2022-12-27T16:17:01.498Z,133.77
2022-12-27T16:20:20.864Z,117.31
2022-12-27T16:23:34.319Z,135.84
2022-12-27T16:27:05.776Z,146.86
2022-12-27T16:30:15.580Z,157.45
2022-12-27T16:33:44.204Z,162.20
2022-12-27T16:37:04.840Z,156.72
2022-12-27T16:40:42.067Z,129.62
2022-12-27T16:54:11.448Z,127.63
2022-12-27T17:08:29.462Z,156.05
2022-12-27T17:18:40.931Z,124.73
2022-12-27T17:21:56.839Z,120.40
2022-12-27T17:25:22.948Z,117.41
2022-12-27T17:28:55.133Z,114.29
2022-12-27T17:32:28.486Z,129.45
2022-12-27T17:36:09.237Z,128.71
2022-12-27T17:39:43.066Z,138.95
2022-12-27T17:43:28.048Z,143.90
2022-12-27T17:47:09.126Z,149.48
2022-12-27T17:50:40.292Z,155.01
2022-12-27T17:54:11.040Z,169.92
2022-12-27T17:57:37.327Z,202.15
2022-12-27T18:01:01.524Z,152.58
2022-12-27T18:04:23.503Z,178.48
2022-12-27T18:07:48.150Z,157.58
2022-12-27T18:11:01.197Z,164.69
2022-12-27T18:14:17.429Z,181.98
2022-12-27T18:17:30.133Z,201.65
2022-12-27T18:20:46.041Z,210.58
2022-12-27T18:23:57.326Z,248.05
2022-12-27T18:27:09.228Z,188.98
2022-12-27T18:30:21.478Z,195.68
2022-12-27T18:33:44.494Z,162.55
2022-12-27T18:37:05.981Z,135.70
2022-12-27T18:40:26.273Z,124.11
2022-12-27T18:43:36.894Z,142.42
2022-12-27T18:46:57.793Z,134.98
2022-12-27T18:50:09.062Z,163.85
2022-12-27T18:53:38.134Z,156.21
2022-12-27T18:56:47.350Z,175.99
2022-12-27T19:00:25.295Z,159.54
2022-12-27T19:03:41.055Z,170.13
2022-12-27T19:07:01.360Z,161.36
2022-12-27T19:10:32.252Z,165.94
2022-12-27T20:14:18.085Z,166.84
2022-12-27T20:17:28.965Z,159.81
2022-12-27T20:20:41.267Z,159.89
2022-12-27T20:23:56.270Z,160.95
2022-12-27T20:46:24.043Z,183.54
2022-12-27T21:40:08.255Z,176.90
2022-12-27T21:43:22.480Z,189.16
2022-12-27T21:46:32.259Z,189.48
2022-12-27T21:49:43.332Z,199.73
2022-12-27T21:56:44.196Z,179.32
2022-12-27T21:59:53.546Z,179.01
2022-12-27T22:02:59.722Z,172.29
2022-12-27T22:06:14.864Z,153.21
2022-12-27T22:09:24.062Z,164.22
2022-12-27T22:12:33.226Z,154.34
2022-12-27T22:19:44.478Z,146.98
2022-12-27T22:26:39.916Z,168.52
2022-12-27T22:29:54.723Z,183.00
2022-12-27T22:33:02.797Z,183.37
2022-12-27T22:47:49.387Z,173.34
2022-12-27T22:55:05.688Z,156.18
2022-12-27T22:58:23.974Z,159.72
2022-12-27T23:01:33.295Z,163.98
2022-12-27T23:04:50.418Z,161.43
2022-12-27T23:08:05.295Z,156.52
2022-12-27T23:31:05.359Z,168.49
2022-12-27T23:34:16.291Z,159.41
2022-12-27T23:37:25.711Z,151.76
2022-12-27T23:40:38.290Z,150.26
2022-12-27T23:51:05.966Z,152.97
2022-12-27T23:54:17.356Z,148.53
